Overton, Nevada Weather observations

Data are for observation ending at time listed.
 Day   Time    Ave.   Ave.  Ave.  Vector   Max.   Stn.    Total    Solar   Ave.  
  of    of     Air    Rel.  Wind   Wind    Wind   Baro.  Precip.   Rad.    Soil  
Year   Day     Temp.  Hum.  Speed  Dir.    Gust   Pres.                    Temp. 
2015   (PST)    F      %     mph   deg.    mph     mb.     in.     W/m2     F   
------------------------------------------------------------------------------
 215    2:20   79.3    33    1.2   290      2.9   964.0    0.00       0    86.1
 215    2:30   78.9    34    1.9   309      3.4   964.1    0.00       0    85.9
 215    2:40   78.0    35    1.1   303      2.8   964.2    0.00       0    85.7
 215    2:50   78.7    33    1.8   278      3.4   964.3    0.00       0    85.6
 215    3:00   79.3    32    1.8   351      4.0   964.4    0.00       0    85.4
 215    3:10   78.1    35    3.3   331      4.2   964.4    0.00       0    85.3
 215    3:20   78.2    34    3.1   305      5.3   964.4    0.00       0    85.1
 215    3:30   78.7    33    2.4   284      4.6   964.4    0.00       0    85.0
 215    3:40   79.0    32    1.9   291      4.0   964.4    0.00       0    84.9
 215    3:50   78.0    32    2.7   306      3.8   964.4    0.00       0    84.7
 215    4:00   78.1    32    0.9   284      3.4   964.5    0.00       0    84.5
 215    4:10   78.2    32    0.6   268      2.2   964.7    0.00       0    84.5
 215    4:20   77.5    33    1.7   289      3.2   964.8    0.00       0    84.3
 215    4:30   75.5    37    2.7   320      3.5   964.9    0.00       0    84.2
 215    4:40   74.5    39    2.1   319      3.4   965.1    0.00       0    84.0
 215    4:50   74.2    40    1.8   317      3.0   965.1    0.00       2    83.8
 215    5:00   74.5    39    2.6   304      4.2   965.1    0.00       2    83.6
 215    5:10   75.8    36    1.2   276      3.0   965.3    0.00       2    83.5
 215    5:20   76.9    34    1.8   293      3.6   965.4    0.00      13    83.6
 215    5:30   77.4    34    1.5   296      3.2   965.5    0.00       0    83.9
 215    5:40   78.0    33    2.8   315      5.7   965.8    0.00      18    84.3
 215    5:50   78.7    32    4.2   318      5.4   966.0    0.00      50    84.9
 215    6:00   79.9    31    4.8   327      7.3   966.2    0.00     104    85.5
 215    6:10   81.7    28    4.1   308      6.8   966.3    0.00      70    86.2
 215    6:20   83.3    27    3.9   324      6.5   966.3    0.00      97    87.1
 215    6:30   83.7    28    3.3   326      5.5   966.5    0.00      99    87.9
 215    6:40   85.4    28    3.5   328      6.6   966.7    0.00     172    88.9
 215    6:50   87.0    25    4.7   312      7.2   966.8    0.00     264    89.9
 215    7:00   88.7    22    5.0   309      8.5   967.0    0.00     314    90.8
 215    7:10   89.2    22    5.8   310      9.3   967.3    0.00     345    91.8
 215    7:20   89.9    21    4.9   303      7.3   967.4    0.00     374    92.9
 215    7:30   90.3    21    5.3   308      8.0   967.5    0.00     402    93.9
 215    7:40   91.3    21    5.0   307      8.2   967.5    0.00     431    95.0
 215    7:50   91.6    20    4.4   303      7.9   967.6    0.00     459    96.1
 215    8:00   92.3    20    3.7   304      7.5   967.7    0.00     486    97.2
 215    8:10   92.9    20    4.2   304      7.2   967.9    0.00     513    98.3
 215    8:20   93.6    19    4.2   313      6.8   968.0    0.00     539    99.4
 215    8:30   94.4    19    4.3   314      7.3   968.1    0.00     563    100.4
 215    8:40   95.0    19    3.2   303      6.3   968.1    0.00     560    101.5
 215    8:50   95.8    18    2.8   301      5.5   968.2    0.00      99    102.5
 215    9:00   97.5    17    1.7   278      4.7   968.2    0.00     278    103.7
 215    9:10   97.8    17    1.8   100      4.5   968.5    0.00     101    104.8
 215    9:20  100.1    15    0.6    77      3.1   968.6    0.00     663    105.9
 215    9:30  101.3    15    1.2   158      3.8   968.5    0.00     693    107.0
 215    9:40   99.6    15    1.9   179      4.9   968.6    0.00     607    108.0
 215    9:50  100.0    14    1.7   190      4.4   968.8    0.00     570    108.9
 215   10:00  101.3    14    2.2   225      6.4   969.0    0.00     749    109.8
 215   10:10   99.9    14    2.8   250      6.4   968.9    0.00     394    110.5
 215   10:20  101.1    14    2.3   144      4.9   968.9    0.00     362    111.2
 215   10:30  101.2    14    2.1    16      4.9   969.0    0.00     796    111.9
 215   10:40  101.9    14    3.4   126      7.9   968.8    0.00     807    112.5
 215   10:50  102.0    14    4.0    75      8.0   968.5    0.00     820    112.9
 215   11:00  102.4    13    4.5    77      8.3   968.4    0.00     834    113.0
 215   11:10  103.0    13    3.5   116      7.1   968.2    0.00     839    112.9
 215   11:20  103.6    13    3.0    99      6.4   968.1    0.00     845    112.4
 215   11:30  104.1    12    4.1    91     10.2   968.1    0.00     855    111.4
 215   11:40  104.3    12    4.4    72      9.2   967.9    0.00     855    110.7
 215   11:50  106.0    12    4.0    56     10.1   967.7    0.00     851    110.1
 215   12:00  105.5    12    6.6    49     12.7   967.7    0.00     857    109.4
 215   12:10  106.3    12    5.1    88     11.2   967.6    0.00     852    108.5
 215   12:20  107.1    11    5.1   152     12.4   967.6    0.00     849    107.6
 215   12:30  106.6    11    4.2   180     14.5   967.5    0.00     844    106.9
 215   12:40  106.7    11    8.5   177     20.0   967.4    0.00     839    106.8
 215   12:50  106.9    10    8.1   157     16.5   967.3    0.00     831    107.1
 215   13:00  107.8    10    7.1   227     18.0   967.3    0.00     826    107.4
 215   13:10  107.5    10    5.6   244     13.8   967.1    0.00     756    107.5
 215   13:20  108.2    10    5.6   184     10.5   967.0    0.00     806    107.4
 215   13:30  107.7    10    6.0   168     11.9   966.9    0.00     812    107.2
 215   13:40  107.6    10    5.5   134     17.7   967.1    0.00     791    106.7
 215   13:50  108.3    10    5.7   139     12.6   966.9    0.00     741    106.2
 215   14:00  108.0     9    7.6   136     16.1   966.7    0.00     738    105.6
 215   14:10  107.9    10    9.3   162     16.5   966.6    0.00     726    105.2
 215   14:20  108.2    10   10.5   162     18.3   966.3    0.00     699    104.8
 215   14:30  108.5     9    8.3   152     16.6   966.1    0.00     680    104.5
 215   14:40  108.4     9    7.2   142     13.2   966.2    0.00     648    104.2
 215   14:50  108.4     9    8.0   144     17.5   966.0    0.00     622    103.9
 215   15:00  108.5     9    8.1   152     15.3   966.0    0.00     608    103.7
 215   15:10  108.6     9    7.0   140     15.3   966.0    0.00     574    103.5
 215   15:20  108.4     9    6.1   112     13.2   965.8    0.00     555    103.4
 215   15:30  108.4     9    8.6   145     16.0   965.6    0.00     532    103.2
 215   15:40  107.8     9    9.0   166     21.3   965.6    0.00     443    103.1
 215   15:50  108.0     9    6.0   144     16.0   965.3    0.00     306    103.0
 215   16:00  107.9    10    7.5   155     14.6   965.1    0.00     446    102.9
 215   16:10  108.3     9    5.3   161     12.3   964.9    0.00     388    102.7
 215   16:20  107.9    10    9.5   152     18.6   964.9    0.00     366    102.7
 215   16:30  107.3    10    7.6   146     17.8   964.9    0.00     324    102.7
 215   16:40  108.0    10    5.4   149     13.4   964.7    0.00     263    102.7
 215   16:50  107.7    10    8.2   169     15.9   964.5    0.00     304    102.6
 215   17:00  107.5    10    7.3   144     15.3   964.4    0.00     154    102.6
 215   17:10  107.1    10    7.7   149     16.4   964.4    0.00     111    102.5
 215   17:20  107.0    10    7.5   141     14.9   964.4    0.00     162    102.5
 215   17:30  106.6    10    8.8   155     16.4   964.3    0.00     146    102.4
 215   17:40  106.3    10    9.9   175     17.5   964.3    0.00     144    102.3
 215   17:50  106.1    11    7.2   147     18.3   964.2    0.00     120    102.1
 215   18:00  105.7    11    7.8   148     15.8   964.2    0.00      94    102.0
 215   18:10  105.5    10    6.6   179     11.0   964.1    0.00      58    101.8
 215   18:20  105.3    10    7.6   171     12.9   964.0    0.00      18    101.5
 215   18:30  104.7    10    6.5   154     15.9   963.9    0.00      14    101.2
 215   18:40  103.9    10    6.8   160     12.3   963.9    0.00       8    101.0
 215   18:50  103.4    10    6.9   162     12.4   963.9    0.00       3    100.6
 215   19:00  103.2    10    8.3   167     13.7   963.7    0.00       2    100.2
 215   19:10  103.0    10    8.1   164     14.2   963.8    0.00       0    100.0
 215   19:20  102.5    10    6.2   156     12.7   963.9    0.00       0    99.6
 215   19:30  101.9    11    6.1   161     12.8   963.9    0.00       0    99.3
 215   19:40  101.8    11    6.6   162     15.6   963.9    0.00       0    99.0
 215   19:50  102.0    10    8.8   162     16.7   964.0    0.00       0    98.8
 215   20:00  101.7    11    8.0   170     15.9   964.1    0.00       0    98.5
 215   20:10  101.4    10    7.7   175     11.5   964.3    0.00       0    98.3
 215   20:20  100.7    10    6.2   177     11.0   964.5    0.00       0    98.0
 215   20:30  100.0    10    5.5   176      8.1   964.6    0.00       0    97.8
 215   20:40   99.3    10    4.8   169      7.5   964.6    0.00       0    97.5
 215   20:50   98.9    10    4.2   165      5.9   964.7    0.00       0    97.1
 215   21:00   98.5    10    3.6   138      6.1   964.7    0.00       0    96.8
 215   21:10   93.9    14    2.7   111      5.0   964.7    0.00       0    96.4
 215   21:20   92.9    14    3.0   117      6.0   964.6    0.00       0    96.1
 215   21:30   92.9    14    3.2   129      6.4   964.6    0.00       0    95.8
 215   21:40   92.0    15    2.9   114      4.4   964.6    0.00       0    95.4
 215   21:50   90.9    16    3.1   122      5.0   964.5    0.00       0    95.1
 215   22:00   91.4    17    2.6   131      4.3   964.3    0.00       0    94.8
 215   22:10   90.6    18    2.7   122      4.7   964.3    0.00       0    94.5
 215   22:20   89.9    19    2.4   121      4.1   964.3    0.00       0    94.2
 215   22:30   88.9    20    2.4   107      3.9   964.3    0.00       0    93.8
 215   22:40   88.5    21    2.2   106      4.2   964.2    0.00       0    93.5
 215   22:50   88.2    21    1.5   107      3.4   964.2    0.00       0    93.3
 215   23:00   85.9    24    1.1    40      2.1   964.2    0.00       0    93.0
 215   23:10   82.4    27    2.0   357      2.9   964.1    0.00       0    92.6
 215   23:20   80.6    28    1.6   358      2.3   964.0    0.00       0    92.3
 215   23:30   79.7    27    1.7   318      4.7   963.9    0.00       0    91.9
 215   23:40   81.1    26    1.1   283      2.9   963.8    0.00       0    91.5
 215   23:50   80.9    27    0.7   288      2.4   963.7    0.00       0    91.2
 216    0:00   79.0    28    1.6   296      3.1   963.7    0.00       0    90.9
 216    0:10   78.7    28    2.5   310      4.5   963.7    0.00       0    90.6
 216    0:20   78.1    29    2.5   320      3.4   963.7    0.00       0    90.2
 216    0:30   77.7    29    2.3   316      3.4   963.7    0.00       0    89.9
 216    0:40   77.3    29    3.5   329      5.5   963.8    0.00       0    89.6
 216    0:50   78.2    28    2.7   318      4.6   963.8    0.00       0    89.3
 216    1:00   78.5    28    2.3   323      4.3   963.8    0.00       0    89.1
 216    1:10   79.7    24    1.7   318      5.3   964.0    0.00       0    88.9
 216    1:20   80.3    24    1.5   333      3.2   964.1    0.00       0    88.6
 216    1:30   80.0    23    1.4   308      3.1   964.1    0.00       0    88.4
 216    1:40   81.2    21    1.8   268      3.9   964.2    0.00       0    88.3
 216    1:50   81.3    21    1.1   282      3.2   964.3    0.00       0    88.1
 216    2:00   80.7    22    0.7    40      1.7   964.2    0.00       0    87.9
 216    2:10   79.9    24    0.8   300      2.6   964.3    0.00       0    87.7

Return to Overton, Nevada graphs page.


Western Regional Climate Center,wrcc@dri.edu